Time;durP1;ratioP1;P1;durP2;ratioP2;P2;SDS_P1;SDS_P2;PMS_P1;PMS_P2;Temp;Humidity;BMP_temperature;BMP_pressure;BME280_temperature;BME280_humidity;BME280_pressure;Samples;Min_cycle;Max_cycle;Signal;HPM_P1;HPM_P2
2021/12/28 00:00:41;;;;;;;7.70;6.90;;;14.50;66.10;;;;;;4109316;28;20120;-58
2021/12/28 00:03:03;;;;;;;7.13;6.43;;;14.50;66.10;;;;;;4110930;28;20081;-58
2021/12/28 00:05:28;;;;;;;7.15;6.45;;;14.50;66.20;;;;;;4110620;28;20086;-59
2021/12/28 00:07:51;;;;;;;10.02;7.03;;;14.60;66.20;;;;;;4099919;28;20517;-59
2021/12/28 00:10:17;;;;;;;8.23;7.20;;;14.60;66.10;;;;;;4094889;28;20065;-59
2021/12/28 00:12:40;;;;;;;8.85;6.68;;;14.70;66.00;;;;;;4106819;28;20058;-59
2021/12/28 00:15:07;;;;;;;7.30;6.55;;;14.80;65.70;;;;;;4110595;28;20059;-59
2021/12/28 00:20:11;;;;;;;8.13;6.80;;;15.10;64.70;;;;;;4109864;28;20105;-58
2021/12/28 00:22:35;;;;;;;7.65;6.45;;;15.10;64.30;;;;;;4098825;28;20428;-59
2021/12/28 00:24:58;;;;;;;7.88;7.05;;;15.10;64.10;;;;;;4094916;28;20078;-59
2021/12/28 00:27:21;;;;;;;9.40;7.40;;;15.20;64.10;;;;;;4094728;28;20106;-59
2021/12/28 00:29:44;;;;;;;9.07;6.88;;;15.20;64.00;;;;;;4093179;28;20162;-59
2021/12/28 00:32:08;;;;;;;7.68;6.93;;;15.20;64.00;;;;;;4094342;28;20840;-59
2021/12/28 00:34:31;;;;;;;8.00;7.20;;;15.20;63.90;;;;;;4094573;28;20051;-58
2021/12/28 00:36:54;;;;;;;7.03;6.38;;;15.20;63.90;;;;;;4094534;28;20452;-59
2021/12/28 00:39:19;;;;;;;9.45;6.45;;;15.20;64.10;;;;;;4097838;28;20427;-59
2021/12/28 00:41:42;;;;;;;7.47;6.70;;;15.20;64.00;;;;;;4103905;28;20050;-59
2021/12/28 00:44:05;;;;;;;7.50;6.78;;;15.20;64.10;;;;;;4094492;28;20578;-59
2021/12/28 00:46:28;;;;;;;6.75;6.15;;;15.10;64.00;;;;;;4094322;28;20055;-59
2021/12/28 00:48:51;;;;;;;8.05;6.85;;;15.10;64.10;;;;;;4097811;28;20055;-59
2021/12/28 00:51:15;;;;;;;8.27;6.95;;;15.10;64.30;;;;;;4102239;28;20066;-59
2021/12/28 00:53:38;;;;;;;8.52;6.70;;;15.20;64.40;;;;;;4113555;28;20043;-59
2021/12/28 00:56:03;;;;;;;7.63;6.80;;;15.20;64.10;;;;;;4111950;28;20109;-59
2021/12/28 00:58:26;;;;;;;8.32;7.25;;;15.30;63.90;;;;;;4113682;28;20058;-59
2021/12/28 01:00:49;;;;;;;7.68;6.45;;;15.30;63.80;;;;;;4112021;28;20105;-58
2021/12/28 01:03:12;;;;;;;7.63;6.88;;;15.40;63.90;;;;;;4097532;28;20756;-61
2021/12/28 01:05:36;;;;;;;8.48;7.30;;;15.40;63.60;;;;;;4097702;28;20479;-59
2021/12/28 01:07:59;;;;;;;8.38;6.55;;;15.60;63.20;;;;;;4097258;28;20051;-59
2021/12/28 01:10:26;;;;;;;8.38;7.28;;;15.60;62.70;;;;;;4097811;28;20051;-59
2021/12/28 01:12:52;;;;;;;8.52;6.78;;;15.70;62.50;;;;;;4098995;28;20118;-59
2021/12/28 01:15:17;;;;;;;7.75;6.78;;;15.70;63.20;;;;;;4097536;28;20074;-59
2021/12/28 01:17:40;;;;;;;8.27;6.88;;;15.70;62.20;;;;;;4097456;28;20094;-59
2021/12/28 01:20:06;;;;;;;8.23;7.28;;;15.60;62.40;;;;;;4097465;28;20447;-59
2021/12/28 01:22:29;;;;;;;8.15;7.35;;;15.60;62.50;;;;;;4110518;28;20430;-57
2021/12/28 01:24:52;;;;;;;9.32;7.45;;;15.50;62.70;;;;;;4112849;28;20061;-59
2021/12/28 01:27:15;;;;;;;8.45;7.43;;;15.40;63.00;;;;;;4113041;28;20701;-59
2021/12/28 01:29:40;;;;;;;10.63;7.10;;;15.30;63.30;;;;;;4112943;28;20101;-59
2021/12/28 01:32:03;;;;;;;11.35;7.97;;;15.30;63.60;;;;;;4102510;28;20059;-58
2021/12/28 01:34:27;;;;;;;9.30;8.00;;;15.20;64.00;;;;;;4095989;28;20044;-58
2021/12/28 01:36:50;;;;;;;9.95;8.07;;;15.20;64.10;;;;;;4095998;28;20507;-60
2021/12/28 01:39:13;;;;;;;8.98;7.85;;;15.20;64.30;;;;;;4096956;28;20427;-60
2021/12/28 01:41:37;;;;;;;10.93;8.27;;;15.30;64.00;;;;;;4103313;28;20454;-60
2021/12/28 01:44:04;;;;;;;9.77;8.52;;;15.30;63.90;;;;;;4111523;28;20093;-60
2021/12/28 01:46:30;;;;;;;8.90;8.00;;;15.30;63.80;;;;;;4096768;28;20098;-58
2021/12/28 01:48:53;;;;;;;9.35;8.02;;;15.30;63.70;;;;;;4096936;28;20102;-59
2021/12/28 01:51:18;;;;;;;11.98;8.13;;;15.30;63.80;;;;;;4097063;28;20459;-59
2021/12/28 01:53:42;;;;;;;14.40;8.60;;;15.30;63.90;;;;;;4108628;28;20175;-60
2021/12/28 01:56:08;;;;;;;10.80;8.45;;;15.30;64.00;;;;;;4112979;28;20133;-59
2021/12/28 01:58:31;;;;;;;11.02;9.65;;;15.40;63.80;;;;;;4112341;28;20055;-58
2021/12/28 02:00:56;;;;;;;12.75;8.80;;;15.40;63.60;;;;;;4110781;28;20454;-59
2021/12/28 02:03:23;;;;;;;10.60;8.50;;;15.40;63.60;;;;;;4096915;28;20063;-59
2021/12/28 02:05:47;;;;;;;11.15;9.98;;;15.40;63.50;;;;;;4096024;28;20051;-59
2021/12/28 02:08:12;;;;;;;12.73;9.90;;;15.50;63.60;;;;;;4096594;28;20422;-58
2021/12/28 02:10:37;;;;;;;11.68;8.85;;;15.50;63.50;;;;;;4096384;28;20102;-59
2021/12/28 02:13:00;;;;;;;11.68;9.10;;;15.50;63.40;;;;;;4096580;28;20144;-59
2021/12/28 02:15:23;;;;;;;11.18;8.63;;;15.50;63.30;;;;;;4096619;28;20051;-59
2021/12/28 02:17:46;;;;;;;13.27;9.90;;;15.50;63.40;;;;;;4109514;28;20047;-59
2021/12/28 02:20:12;;;;;;;12.27;9.40;;;15.50;63.30;;;;;;4112715;28;20106;-59
2021/12/28 02:22:35;;;;;;;13.32;9.40;;;15.40;63.40;;;;;;4097154;28;20055;-59
2021/12/28 02:24:59;;;;;;;13.70;9.63;;;15.40;63.60;;;;;;4096472;28;20102;-60
2021/12/28 02:27:22;;;;;;;15.60;9.88;;;15.40;63.80;;;;;;4096234;28;20046;-59
2021/12/28 02:29:44;;;;;;;14.40;10.10;;;15.40;64.10;;;;;;4096331;28;20051;-59
2021/12/28 02:32:08;;;;;;;13.60;9.85;;;15.50;64.00;;;;;;4107502;28;20054;-59
2021/12/28 02:34:31;;;;;;;14.73;10.02;;;15.50;63.50;;;;;;4111946;28;20050;-59
2021/12/28 02:36:55;;;;;;;14.15;9.45;;;15.60;63.30;;;;;;4112170;28;20455;-59
2021/12/28 02:39:19;;;;;;;14.82;10.52;;;15.60;63.10;;;;;;4112116;28;20051;-59
2021/12/28 02:41:42;;;;;;;14.55;9.68;;;15.60;63.10;;;;;;4103649;28;20387;-59
2021/12/28 02:44:06;;;;;;;14.30;10.95;;;15.70;63.10;;;;;;4106778;28;20105;-59
2021/12/28 02:46:29;;;;;;;17.20;11.18;;;15.80;62.70;;;;;;4110197;28;20062;-59
2021/12/28 02:48:52;;;;;;;14.80;9.85;;;15.80;62.40;;;;;;4110108;28;20053;-59
2021/12/28 02:51:17;;;;;;;15.32;11.60;;;15.80;62.40;;;;;;4107567;28;20102;-59
2021/12/28 02:53:42;;;;;;;15.57;11.50;;;15.80;62.50;;;;;;4109267;28;20105;-58
2021/12/28 02:56:06;;;;;;;16.88;11.07;;;15.70;62.80;;;;;;4111462;28;20324;-59
2021/12/28 02:58:33;;;;;;;15.73;11.40;;;15.70;62.90;;;;;;4111486;28;20051;-59
2021/12/28 03:01:00;;;;;;;14.27;10.80;;;15.70;62.80;;;;;;4106536;28;20051;-58
2021/12/28 03:03:27;;;;;;;15.57;11.77;;;15.70;62.80;;;;;;4111804;28;20055;-59
2021/12/28 03:05:53;;;;;;;19.88;11.60;;;15.70;63.00;;;;;;4111877;28;20059;-59
2021/12/28 03:08:19;;;;;;;21.90;12.63;;;15.70;63.10;;;;;;4111525;28;20495;-59
2021/12/28 03:10:45;;;;;;;21.05;11.50;;;15.70;63.10;;;;;;4098433;28;20055;-58
2021/12/28 03:13:13;;;;;;;20.88;11.48;;;15.60;63.00;;;;;;4095084;28;20080;-58
2021/12/28 03:15:36;;;;;;;18.95;12.15;;;15.60;63.30;;;;;;4109724;28;20056;-58
2021/12/28 03:18:00;;;;;;;16.70;11.48;;;15.50;63.50;;;;;;4111409;28;20054;-59
2021/12/28 03:20:22;;;;;;;20.23;11.93;;;15.60;63.70;;;;;;4104766;28;20423;-59
2021/12/28 03:22:46;;;;;;;19.45;12.40;;;15.60;63.50;;;;;;4111035;28;20047;-59
2021/12/28 03:25:10;;;;;;;17.55;11.98;;;15.50;63.40;;;;;;4111444;28;20047;-59
2021/12/28 03:27:34;;;;;;;19.58;11.90;;;15.50;63.60;;;;;;4111559;28;20102;-59
2021/12/28 03:29:57;;;;;;;17.27;12.35;;;15.40;63.90;;;;;;4104962;28;20440;-59
2021/12/28 03:32:20;;;;;;;19.23;12.00;;;15.50;64.10;;;;;;4095183;28;20083;-58
2021/12/28 03:34:43;;;;;;;20.48;12.57;;;15.50;64.00;;;;;;4095446;28;20200;-59
2021/12/28 03:37:06;;;;;;;15.18;11.93;;;15.50;64.00;;;;;;4107623;28;20085;-59
2021/12/28 03:39:29;;;;;;;19.67;11.75;;;15.40;63.90;;;;;;4095892;28;20475;-59
2021/12/28 03:41:52;;;;;;;16.42;11.75;;;15.40;64.10;;;;;;4095440;28;20054;-59
2021/12/28 03:44:17;;;;;;;13.32;10.85;;;15.30;64.20;;;;;;4093998;28;20098;-59
2021/12/28 03:46:40;;;;;;;15.75;11.55;;;15.30;64.50;;;;;;4100141;28;20118;-59
2021/12/28 03:49:04;;;;;;;17.42;12.23;;;15.30;64.80;;;;;;4110695;28;20054;-59
2021/12/28 03:51:27;;;;;;;15.50;12.05;;;15.40;64.70;;;;;;4095132;28;20051;-59
2021/12/28 03:53:51;;;;;;;17.05;12.23;;;15.50;64.30;;;;;;4095224;28;20051;-59
2021/12/28 03:56:15;;;;;;;17.65;12.98;;;15.60;63.70;;;;;;4095162;28;20552;-59
2021/12/28 03:58:40;;;;;;;15.52;11.73;;;15.70;63.40;;;;;;4095037;28;20087;-59
2021/12/28 04:01:05;;;;;;;19.60;13.07;;;15.80;63.10;;;;;;4104964;28;20050;-59
2021/12/28 04:03:29;;;;;;;16.75;12.60;;;15.70;63.10;;;;;;4110979;28;20050;-59
2021/12/28 04:05:52;;;;;;;17.83;12.85;;;15.70;63.20;;;;;;4108878;28;20097;-59
2021/12/28 04:08:20;;;;;;;16.92;13.27;;;15.70;63.40;;;;;;4094440;28;20495;-59
2021/12/28 04:10:52;;;;;;;22.20;13.45;;;15.70;63.40;;;;;;4105456;28;20054;-64
2021/12/28 04:13:15;;;;;;;16.23;12.45;;;15.80;63.20;;;;;;4110762;28;20050;-63
2021/12/28 04:15:38;;;;;;;19.60;12.00;;;15.80;62.90;;;;;;4110168;28;20051;-60
2021/12/28 04:18:02;;;;;;;18.65;13.13;;;15.90;62.80;;;;;;4094475;28;20058;-59
2021/12/28 04:20:25;;;;;;;19.38;12.63;;;15.90;62.80;;;;;;4103315;28;20435;-60
2021/12/28 04:22:49;;;;;;;21.10;13.95;;;15.90;63.70;;;;;;4109867;28;20613;-59
2021/12/28 04:25:14;;;;;;;20.38;13.07;;;16.00;62.80;;;;;;4110891;28;20093;-60
2021/12/28 04:27:38;;;;;;;18.45;13.77;;;16.10;62.40;;;;;;4094004;28;20234;-59
2021/12/28 04:30:01;;;;;;;19.38;13.38;;;16.20;61.90;;;;;;4094942;28;20067;-59
2021/12/28 04:32:24;;;;;;;16.67;12.80;;;16.30;61.40;;;;;;4094515;28;20090;-59
2021/12/28 04:34:49;;;;;;;22.55;13.32;;;16.30;61.30;;;;;;4094563;28;20043;-59
2021/12/28 04:37:11;;;;;;;26.98;13.65;;;16.30;61.30;;;;;;4094793;28;20113;-59
2021/12/28 04:39:35;;;;;;;22.48;13.25;;;16.20;61.30;;;;;;4099688;28;20121;-60
2021/12/28 04:41:57;;;;;;;21.08;13.63;;;16.20;61.70;;;;;;4110456;28;20050;-58
2021/12/28 04:44:24;;;;;;;23.92;12.88;;;16.10;61.90;;;;;;4110491;28;20118;-59
2021/12/28 04:46:47;;;;;;;21.77;13.18;;;16.10;62.80;;;;;;4110562;28;20125;-59
2021/12/28 04:49:10;;;;;;;21.83;13.20;;;16.10;62.00;;;;;;4105846;28;20101;-59
2021/12/28 04:51:34;;;;;;;24.70;13.27;;;16.10;62.10;;;;;;4094058;28;20047;-59
2021/12/28 04:54:00;;;;;;;19.33;13.07;;;16.00;63.10;;;;;;4094556;28;20055;-59
2021/12/28 04:56:23;;;;;;;24.88;14.90;;;16.00;62.40;;;;;;4095315;28;20050;-59
2021/12/28 04:58:46;;;;;;;18.77;13.73;;;16.00;62.30;;;;;;4095130;28;20046;-59
2021/12/28 05:01:09;;;;;;;27.00;13.70;;;16.00;62.30;;;;;;4110288;28;20055;-59
2021/12/28 05:03:33;;;;;;;28.80;14.10;;;16.00;62.60;;;;;;4110320;28;20047;-59
2021/12/28 05:05:56;;;;;;;30.08;13.68;;;15.90;62.70;;;;;;4110119;28;20313;-59
2021/12/28 05:08:22;;;;;;;26.63;14.27;;;15.80;62.80;;;;;;4110461;28;20450;-59
2021/12/28 05:10:45;;;;;;;35.45;13.32;;;15.90;63.10;;;;;;4093994;28;20102;-58
2021/12/28 05:13:08;;;;;;;25.45;14.73;;;15.90;63.40;;;;;;4104673;28;20106;-59
2021/12/28 05:15:31;;;;;;;32.72;14.32;;;15.90;64.20;;;;;;4109986;28;20499;-58
2021/12/28 05:17:55;;;;;;;27.48;13.57;;;16.00;62.80;;;;;;4109907;28;20093;-59
2021/12/28 05:20:18;;;;;;;23.83;14.15;;;16.10;62.40;;;;;;4094760;28;20086;-58
2021/12/28 05:22:41;;;;;;;25.35;12.90;;;16.10;62.10;;;;;;4093833;28;20062;-60
2021/12/28 05:25:07;;;;;;;24.67;13.40;;;16.10;62.00;;;;;;4093429;28;20054;-60
2021/12/28 05:27:30;;;;;;;29.45;13.00;;;16.10;62.20;;;;;;4095139;28;20098;-59
2021/12/28 05:29:53;;;;;;;25.95;12.43;;;16.00;62.30;;;;;;4095530;28;20055;-58
2021/12/28 05:32:16;;;;;;;21.83;12.45;;;16.00;62.60;;;;;;4094099;28;20098;-58
2021/12/28 05:34:39;;;;;;;35.97;13.00;;;15.90;62.70;;;;;;4097339;28;20047;-59
2021/12/28 05:37:02;;;;;;;35.33;13.02;;;15.90;63.90;;;;;;4096992;28;20563;-58
2021/12/28 05:39:25;;;;;;;29.48;12.07;;;15.80;63.20;;;;;;4106547;28;20058;-59
2021/12/28 05:41:50;;;;;;;40.72;12.30;;;15.70;64.30;;;;;;4113107;28;20055;-59
2021/12/28 05:44:12;;;;;;;31.23;13.18;;;15.60;63.90;;;;;;4111370;28;20054;-59
2021/12/28 05:46:36;;;;;;;28.92;12.35;;;15.60;64.10;;;;;;4112995;28;20130;-59
2021/12/28 05:48:59;;;;;;;25.05;12.35;;;15.60;64.30;;;;;;4106273;28;20106;-59
2021/12/28 05:51:22;;;;;;;27.65;12.55;;;15.70;64.10;;;;;;4096850;28;20452;-59
2021/12/28 05:53:45;;;;;;;17.10;11.05;;;15.80;63.90;;;;;;4096590;28;20051;-58
2021/12/28 05:56:08;;;;;;;20.15;11.77;;;15.80;63.60;;;;;;4097007;28;20443;-59
2021/12/28 05:58:33;;;;;;;22.90;12.52;;;15.90;63.40;;;;;;4099294;28;20051;-59
2021/12/28 06:00:56;;;;;;;20.95;11.70;;;15.90;63.50;;;;;;4111330;28;20089;-59
2021/12/28 06:03:19;;;;;;;22.42;12.73;;;15.90;63.40;;;;;;4112770;28;20051;-59
2021/12/28 06:05:42;;;;;;;17.83;12.48;;;15.90;63.40;;;;;;4112642;28;20051;-59
2021/12/28 06:08:05;;;;;;;16.65;11.65;;;15.90;63.30;;;;;;4111398;28;20058;-59
2021/12/28 06:10:45;;;;;;;15.50;11.38;;;16.00;63.10;;;;;;4112031;28;20486;-59
2021/12/28 06:13:08;;;;;;;17.98;11.70;;;16.10;62.70;;;;;;4112394;28;20050;-59
2021/12/28 06:15:32;;;;;;;17.20;11.15;;;16.20;62.40;;;;;;4110692;28;20055;-59
2021/12/28 06:17:55;;;;;;;18.50;13.20;;;16.20;62.10;;;;;;4112508;28;20105;-59
2021/12/28 06:20:18;;;;;;;16.95;12.63;;;16.20;62.10;;;;;;4111984;28;20082;-59
2021/12/28 06:22:41;;;;;;;17.88;12.57;;;16.20;62.30;;;;;;4112558;28;20146;-59
2021/12/28 06:25:07;;;;;;;17.33;12.02;;;16.10;62.50;;;;;;4112523;28;20530;-59
2021/12/28 06:27:30;;;;;;;17.58;11.93;;;16.00;62.80;;;;;;4112467;28;20051;-58
2021/12/28 06:29:54;;;;;;;16.08;12.88;;;16.10;62.80;;;;;;4098623;28;20051;-58
2021/12/28 06:32:18;;;;;;;17.75;13.07;;;16.10;62.70;;;;;;4096654;28;20071;-58
2021/12/28 06:34:41;;;;;;;16.50;12.82;;;16.10;62.70;;;;;;4095908;28;20108;-58
2021/12/28 06:37:05;;;;;;;15.57;12.50;;;16.10;62.80;;;;;;4096131;28;20047;-58
2021/12/28 06:39:28;;;;;;;17.95;12.90;;;16.10;62.70;;;;;;4104804;28;20050;-59
2021/12/28 06:41:51;;;;;;;16.88;13.13;;;16.10;62.60;;;;;;4112048;28;20055;-59
2021/12/28 06:44:14;;;;;;;16.67;12.80;;;16.00;62.80;;;;;;4111476;28;20058;-59
2021/12/28 06:46:38;;;;;;;18.17;13.35;;;16.00;63.00;;;;;;4111757;28;20042;-58
2021/12/28 06:49:02;;;;;;;16.00;12.50;;;15.90;63.10;;;;;;4104768;28;20062;-61
2021/12/28 06:51:25;;;;;;;17.50;13.68;;;15.90;63.30;;;;;;4111801;28;20118;-62
2021/12/28 06:53:48;;;;;;;17.52;13.20;;;15.90;63.50;;;;;;4111803;28;20118;-60
2021/12/28 06:56:12;;;;;;;18.13;13.45;;;15.90;63.50;;;;;;4111943;28;20105;-59
2021/12/28 06:58:35;;;;;;;17.20;12.55;;;16.10;63.30;;;;;;4107982;28;20051;-60
2021/12/28 07:00:58;;;;;;;18.10;13.07;;;16.20;62.80;;;;;;4107825;28;20055;-59
2021/12/28 07:03:21;;;;;;;18.45;13.15;;;16.30;62.40;;;;;;4111789;28;20446;-61
2021/12/28 07:05:45;;;;;;;16.95;12.07;;;16.40;62.10;;;;;;4111766;28;20054;-59
2021/12/28 07:08:08;;;;;;;16.17;12.10;;;16.40;61.90;;;;;;4111932;28;20097;-59
2021/12/28 07:10:31;;;;;;;16.52;12.13;;;16.40;62.00;;;;;;4095717;28;20094;-59
2021/12/28 07:12:54;;;;;;;14.13;11.20;;;16.30;62.10;;;;;;4106774;28;20462;-60
2021/12/28 07:15:19;;;;;;;15.20;11.23;;;16.30;62.50;;;;;;4095332;28;20059;-61
2021/12/28 07:17:42;;;;;;;16.27;12.00;;;16.30;63.10;;;;;;4100809;28;20162;-59
2021/12/28 07:20:06;;;;;;;15.07;11.73;;;16.30;63.20;;;;;;4107576;28;20054;-58
2021/12/28 07:22:34;;;;;;;15.23;10.82;;;16.30;63.20;;;;;;4107774;28;20046;-60
2021/12/28 07:24:57;;;;;;;15.02;10.88;;;16.20;63.10;;;;;;4111366;28;20043;-59
2021/12/28 07:27:20;;;;;;;14.63;10.88;;;16.20;63.40;;;;;;4110910;28;20046;-59
2021/12/28 07:29:43;;;;;;;15.48;10.18;;;16.10;63.50;;;;;;4100137;28;20055;-60
2021/12/28 07:32:08;;;;;;;12.80;10.20;;;16.00;63.60;;;;;;4099709;28;20101;-61
2021/12/28 07:34:32;;;;;;;10.82;9.40;;;16.00;63.80;;;;;;4104349;28;20101;-58
2021/12/28 07:36:55;;;;;;;13.73;10.70;;;16.00;64.00;;;;;;4098663;28;20139;-59
2021/12/28 07:39:20;;;;;;;15.75;10.30;;;15.90;64.00;;;;;;4107420;28;20075;-59
2021/12/28 07:41:43;;;;;;;12.07;9.52;;;16.00;64.10;;;;;;4095336;28;20101;-59
2021/12/28 07:44:07;;;;;;;10.95;8.30;;;16.00;64.00;;;;;;4095089;28;20073;-59
2021/12/28 07:46:30;;;;;;;13.90;9.35;;;16.00;64.00;;;;;;4095141;28;20102;-59
2021/12/28 07:48:53;;;;;;;12.70;8.45;;;16.00;64.00;;;;;;4094537;28;20051;-59
2021/12/28 07:51:17;;;;;;;12.95;7.57;;;16.00;64.00;;;;;;4094124;28;20043;-59
2021/12/28 07:53:40;;;;;;;11.13;7.78;;;16.00;64.00;;;;;;4095140;28;20051;-59
2021/12/28 07:56:05;;;;;;;10.57;8.15;;;16.00;64.10;;;;;;4095189;28;20117;-59
2021/12/28 07:58:28;;;;;;;13.10;7.70;;;15.90;64.30;;;;;;4103797;28;20108;-59
2021/12/28 08:00:51;;;;;;;14.27;7.32;;;15.90;64.20;;;;;;4110843;28;20090;-60
2021/12/28 08:03:14;;;;;;;14.15;8.25;;;16.00;64.20;;;;;;4095563;28;20051;-59
2021/12/28 08:05:38;;;;;;;14.18;8.38;;;16.00;63.90;;;;;;4097111;28;20051;-59
2021/12/28 08:08:01;;;;;;;11.50;8.00;;;16.00;64.00;;;;;;4116674;28;20129;-59
2021/12/28 08:10:25;;;;;;;13.48;7.47;;;16.00;65.00;;;;;;4117021;28;20050;-59
2021/12/28 08:12:51;;;;;;;11.63;7.28;;;15.90;64.10;;;;;;4113804;28;20109;-59
2021/12/28 08:15:14;;;;;;;13.48;7.60;;;15.90;64.20;;;;;;4117665;28;20120;-62
2021/12/28 08:17:37;;;;;;;10.50;6.68;;;15.80;64.40;;;;;;4114471;28;20509;-60
2021/12/28 08:20:00;;;;;;;13.98;7.13;;;15.80;64.80;;;;;;4115086;28;20105;-60
2021/12/28 08:22:23;;;;;;;11.77;7.00;;;15.70;65.10;;;;;;4117428;28;20100;-59
2021/12/28 08:24:46;;;;;;;12.98;6.40;;;15.60;65.50;;;;;;4118186;28;20055;-59
2021/12/28 08:27:10;;;;;;;10.32;6.15;;;15.70;66.30;;;;;;4114202;28;20054;-58
2021/12/28 08:29:34;;;;;;;11.20;6.50;;;15.70;65.40;;;;;;4112276;28;20649;-59
2021/12/28 08:31:59;;;;;;;10.75;5.55;;;15.70;65.20;;;;;;4114773;28;20051;-59
2021/12/28 08:34:22;;;;;;;13.13;6.10;;;15.90;64.80;;;;;;4112814;28;20112;-59
2021/12/28 08:36:45;;;;;;;15.38;6.43;;;16.00;65.30;;;;;;4114778;28;20050;-59
2021/12/28 08:39:09;;;;;;;12.82;5.97;;;16.10;64.00;;;;;;4114316;28;20118;-59
2021/12/28 08:41:32;;;;;;;14.38;5.65;;;16.10;63.70;;;;;;4118893;28;20054;-59
2021/12/28 08:43:55;;;;;;;11.30;5.65;;;16.10;63.50;;;;;;4114890;28;20447;-59
2021/12/28 08:46:20;;;;;;;13.13;5.80;;;16.10;63.60;;;;;;4116805;28;20069;-59
2021/12/28 08:48:44;;;;;;;11.55;5.85;;;16.10;63.80;;;;;;4114717;28;20494;-59
2021/12/28 08:51:08;;;;;;;20.38;5.68;;;16.10;64.00;;;;;;4113738;28;20093;-59
2021/12/28 08:53:31;;;;;;;17.27;6.22;;;16.10;64.20;;;;;;4112981;28;20058;-59
2021/12/28 08:55:54;;;;;;;11.55;5.22;;;16.10;64.00;;;;;;4112278;28;20136;-60
2021/12/28 08:58:18;;;;;;;10.38;5.10;;;16.10;63.90;;;;;;4116514;28;20054;-59
2021/12/28 09:00:43;;;;;;;10.98;5.15;;;16.10;64.00;;;;;;4116660;28;20057;-60
2021/12/28 09:03:08;;;;;;;15.05;5.35;;;16.10;64.10;;;;;;4115705;28;20190;-59
2021/12/28 09:05:31;;;;;;;13.25;5.05;;;16.00;65.20;;;;;;4110035;28;20047;-59
2021/12/28 09:07:56;;;;;;;10.40;5.18;;;16.00;64.60;;;;;;4112452;28;20046;-60
2021/12/28 09:10:19;;;;;;;14.70;5.47;;;15.90;64.70;;;;;;4112025;28;20047;-60
2021/12/28 09:12:42;;;;;;;9.32;4.53;;;15.90;64.90;;;;;;4116385;28;20116;-59
2021/12/28 09:15:07;;;;;;;11.30;4.50;;;15.90;65.10;;;;;;4120073;28;20085;-59
2021/12/28 09:17:30;;;;;;;11.50;4.95;;;15.80;65.10;;;;;;4121512;28;20109;-64
2021/12/28 09:19:54;;;;;;;11.70;4.13;;;15.80;65.40;;;;;;4120230;28;20058;-60
2021/12/28 09:22:17;;;;;;;9.77;4.28;;;15.70;66.50;;;;;;4126041;28;20054;-60
2021/12/28 09:24:40;;;;;;;14.93;4.85;;;15.70;65.80;;;;;;4121049;28;20055;-62
2021/12/28 09:27:08;;;;;;;10.43;4.10;;;15.70;66.00;;;;;;4117535;28;20059;-60
2021/12/28 09:29:32;;;;;;;9.52;4.43;;;15.70;66.00;;;;;;4120422;28;20054;-60
2021/12/28 09:31:54;;;;;;;10.85;4.10;;;15.70;65.80;;;;;;4113817;28;20158;-61
2021/12/28 09:34:18;;;;;;;9.02;3.75;;;15.80;65.70;;;;;;4109610;28;20054;-60
2021/12/28 09:36:53;;;;;;;7.78;4.13;;;15.80;65.80;;;;;;4109448;28;20046;-59
2021/12/28 09:39:22;;;;;;;12.07;3.90;;;15.80;65.70;;;;;;4107442;28;20047;-60
2021/12/28 09:41:45;;;;;;;11.13;4.25;;;15.80;65.80;;;;;;4107632;28;20054;-60
2021/12/28 09:44:08;;;;;;;9.20;4.20;;;15.80;65.90;;;;;;4116565;28;20100;-59
2021/12/28 09:46:31;;;;;;;12.38;4.20;;;15.80;65.90;;;;;;4116876;28;20047;-60
2021/12/28 09:48:54;;;;;;;10.30;4.65;;;15.70;65.90;;;;;;4119663;28;20395;-60
2021/12/28 09:51:17;;;;;;;8.45;3.75;;;15.70;67.00;;;;;;4118936;28;20176;-60
2021/12/28 09:53:43;;;;;;;9.63;4.68;;;15.70;66.40;;;;;;4110093;28;20050;-60
2021/12/28 09:56:07;;;;;;;9.00;4.13;;;15.70;66.40;;;;;;4111046;28;20058;-60
2021/12/28 09:58:30;;;;;;;7.50;3.40;;;15.70;66.40;;;;;;4112196;28;20098;-60
2021/12/28 10:00:57;;;;;;;16.13;4.18;;;15.70;66.30;;;;;;4110336;28;20396;-61
2021/12/28 10:03:20;;;;;;;9.18;3.97;;;15.70;66.40;;;;;;4121430;28;20109;-60
2021/12/28 10:05:44;;;;;;;8.77;3.35;;;15.70;66.40;;;;;;4108496;28;20050;-60
2021/12/28 10:08:07;;;;;;;8.02;3.22;;;15.70;66.60;;;;;;4119463;28;20537;-60
2021/12/28 10:10:35;;;;;;;7.43;3.13;;;15.70;66.80;;;;;;4123998;28;20100;-60
2021/12/28 10:13:01;;;;;;;10.68;3.63;;;15.70;66.90;;;;;;4110887;28;20047;-60
2021/12/28 10:15:27;;;;;;;9.45;3.95;;;15.70;66.80;;;;;;4110043;28;20129;-60
2021/12/28 10:17:54;;;;;;;10.82;3.97;;;15.70;66.60;;;;;;4112295;28;20125;-60
2021/12/28 10:20:19;;;;;;;6.85;3.58;;;15.80;66.40;;;;;;4124501;28;20061;-60
2021/12/28 10:22:46;;;;;;;7.80;4.00;;;15.70;66.30;;;;;;4124508;28;20050;-60
2021/12/28 10:25:12;;;;;;;12.50;3.22;;;15.70;66.20;;;;;;4110049;28;20948;-60
2021/12/28 10:27:39;;;;;;;10.73;3.75;;;15.70;66.40;;;;;;4117777;28;20180;-60
2021/12/28 10:30:12;;;;;;;9.45;3.97;;;15.70;66.70;;;;;;4111183;28;20921;-58
2021/12/28 10:32:36;;;;;;;11.23;4.40;;;15.70;66.70;;;;;;4111296;28;20047;-60
2021/12/28 10:35:01;;;;;;;14.70;4.88;;;15.70;66.60;;;;;;4118205;28;20483;-60
2021/12/28 10:37:26;;;;;;;13.48;4.55;;;15.80;66.30;;;;;;4111912;28;20054;-59
2021/12/28 10:39:54;;;;;;;13.27;4.88;;;15.90;66.20;;;;;;4109669;28;20105;-60
2021/12/28 10:42:40;;;;;;;11.95;4.35;;;15.90;66.30;;;;;;4111141;28;20055;-60
2021/12/28 10:45:07;;;;;;;10.55;3.92;;;15.80;66.20;;;;;;4111209;28;20498;-60
2021/12/28 10:47:30;;;;;;;15.23;4.57;;;15.80;66.30;;;;;;4109148;28;20137;-59
2021/12/28 10:49:53;;;;;;;14.07;4.20;;;15.80;66.60;;;;;;4111895;28;20051;-60
2021/12/28 10:52:24;;;;;;;8.27;4.13;;;15.80;66.60;;;;;;4111094;28;20431;-60
2021/12/28 10:54:47;;;;;;;11.77;3.85;;;15.70;66.60;;;;;;4111313;28;20452;-60
2021/12/28 10:57:10;;;;;;;16.60;4.60;;;15.70;66.80;;;;;;4111502;28;20082;-60
2021/12/28 10:59:35;;;;;;;16.40;4.57;;;15.70;66.90;;;;;;4111948;28;20047;-60
2021/12/28 11:01:58;;;;;;;14.27;4.55;;;15.70;67.10;;;;;;4109639;28;20059;-60
2021/12/28 11:04:32;;;;;;;10.13;3.78;;;15.70;67.00;;;;;;4103594;28;20105;-60
2021/12/28 11:06:55;;;;;;;;;;;15.70;66.70;;;;;;4095785;28;20051;-60
2021/12/28 11:09:20;;;;;;;13.50;4.20;;;15.70;66.50;;;;;;4095970;28;19930;-60
2021/12/28 11:11:44;;;;;;;10.68;4.35;;;15.80;66.50;;;;;;4100709;28;20051;-60
2021/12/28 11:14:09;;;;;;;13.70;4.50;;;15.80;66.50;;;;;;4111689;28;20442;-60
2021/12/28 11:16:35;;;;;;;10.80;3.95;;;15.80;66.60;;;;;;4110681;28;20058;-60
2021/12/28 11:18:59;;;;;;;13.50;4.32;;;15.80;66.60;;;;;;4106514;28;20058;-60
2021/12/28 11:21:24;;;;;;;9.80;4.45;;;15.80;66.80;;;;;;4109923;28;20113;-60
2021/12/28 11:23:50;;;;;;;12.77;4.30;;;15.80;67.00;;;;;;4102954;28;20101;-60
2021/12/28 11:26:17;;;;;;;9.98;3.50;;;15.80;67.00;;;;;;4111285;28;20050;-60
2021/12/28 11:28:42;;;;;;;9.15;3.53;;;15.80;66.90;;;;;;4111475;28;20101;-60
2021/12/28 11:31:14;;;;;;;13.10;3.45;;;15.80;66.90;;;;;;4108701;28;20244;-60
2021/12/28 11:33:48;;;;;;;10.25;3.50;;;15.80;67.20;;;;;;4096466;28;20090;-60
2021/12/28 11:36:11;;;;;;;8.13;3.15;;;15.70;67.20;;;;;;4094630;28;20051;-60
2021/12/28 11:38:35;;;;;;;7.45;3.15;;;15.70;67.50;;;;;;4094133;28;20086;-60
2021/12/28 11:40:58;;;;;;;13.52;4.00;;;15.60;67.80;;;;;;4105416;28;20071;-60
2021/12/28 11:43:20;;;;;;;12.05;4.07;;;15.60;68.00;;;;;;4095189;28;20059;-60
2021/12/28 11:45:45;;;;;;;12.60;3.40;;;15.60;68.10;;;;;;4111021;28;20112;-60
2021/12/28 11:48:08;;;;;;;5.70;3.95;;;15.50;68.30;;;;;;4126974;28;20050;-60
2021/12/28 11:50:32;;;;;;;5.55;2.78;;;15.50;68.40;;;;;;4126988;28;20054;-60
2021/12/28 11:52:55;;;;;;;7.65;3.65;;;15.50;68.70;;;;;;4123461;28;20085;-60
2021/12/28 11:55:20;;;;;;;5.75;3.08;;;15.40;68.70;;;;;;4095060;28;20062;-60
2021/12/28 11:57:52;;;;;;;8.75;3.42;;;15.40;69.00;;;;;;4100589;28;20490;-60
2021/12/28 12:00:19;;;;;;;9.20;3.50;;;15.30;69.20;;;;;;4124434;28;20100;-59
2021/12/28 12:02:47;;;;;;;8.73;3.80;;;15.30;69.50;;;;;;4094420;28;20059;-65
2021/12/28 12:05:15;;;;;;;10.82;4.57;;;15.20;69.80;;;;;;4103746;28;20054;-61
2021/12/28 12:07:39;;;;;;;8.80;4.00;;;15.20;69.90;;;;;;4094916;28;20051;-61
2021/12/28 12:10:15;;;;;;;9.32;3.53;;;15.30;69.70;;;;;;4104814;28;20050;-62
2021/12/28 12:12:53;;;;;;;9.23;3.53;;;15.30;69.70;;;;;;4110999;28;20549;-60
2021/12/28 12:15:17;;;;;;;10.25;3.97;;;15.30;69.50;;;;;;4109892;28;20083;-62
2021/12/28 12:17:43;;;;;;;10.70;3.65;;;15.30;69.60;;;;;;4108256;28;20102;-59
2021/12/28 12:20:09;;;;;;;6.45;3.35;;;15.40;69.60;;;;;;4094187;28;20047;-60
2021/12/28 12:22:36;;;;;;;7.30;3.25;;;15.40;69.30;;;;;;4094416;28;20110;-60